createdAt,value
2022-12-31T00:02:31.965Z,13.60
2022-12-31T00:05:05.636Z,13.50
2022-12-31T00:10:13.540Z,13.50
2022-12-31T00:12:46.598Z,12.10
2022-12-31T00:15:20.193Z,11.80
2022-12-31T00:17:53.331Z,11.50
2022-12-31T00:20:26.441Z,12.60
2022-12-31T00:22:59.667Z,12.50
2022-12-31T00:25:32.812Z,11.90
2022-12-31T00:28:06.413Z,11.40
2022-12-31T00:30:40.071Z,11.30
2022-12-31T00:33:13.245Z,10.70
2022-12-31T00:35:46.299Z,11.50
2022-12-31T00:38:19.496Z,10.20
2022-12-31T00:40:52.716Z,9.80
2022-12-31T00:43:25.773Z,7.90
2022-12-31T00:45:59.037Z,9.30
2022-12-31T00:48:32.745Z,8.80
2022-12-31T00:51:07.991Z,8.40
2022-12-31T00:53:41.448Z,8.10
2022-12-31T00:56:18.658Z,8.10
2022-12-31T00:58:51.848Z,7.70
2022-12-31T01:01:28.363Z,7.50
2022-12-31T01:04:06.160Z,8.10
2022-12-31T01:06:39.810Z,7.50
2022-12-31T01:09:14.563Z,6.50
2022-12-31T01:11:47.715Z,7.70
2022-12-31T01:14:22.516Z,7.60
2022-12-31T01:16:56.814Z,6.80
2022-12-31T01:19:31.341Z,7.90
2022-12-31T01:22:04.421Z,6.50
2022-12-31T01:24:37.492Z,6.90
2022-12-31T01:27:10.648Z,5.20
2022-12-31T01:29:43.675Z,6.20
2022-12-31T01:32:16.871Z,6.50
2022-12-31T01:34:50.414Z,6.60
2022-12-31T01:37:23.659Z,6.30
2022-12-31T01:39:56.891Z,6.30
2022-12-31T01:42:30.019Z,6.60
2022-12-31T01:45:04.092Z,4.80
2022-12-31T01:47:43.449Z,6.20
2022-12-31T01:50:22.793Z,5.70
2022-12-31T01:53:02.066Z,4.70
2022-12-31T01:55:37.863Z,5.70
2022-12-31T01:58:15.982Z,5.60
2022-12-31T02:00:50.329Z,5.60
2022-12-31T02:03:27.603Z,5.50
2022-12-31T02:06:08.492Z,5.20
2022-12-31T02:08:42.577Z,5.80
2022-12-31T02:11:29.888Z,5.30
2022-12-31T02:14:08.333Z,5.40
2022-12-31T02:16:50.355Z,4.80
2022-12-31T02:19:58.685Z,5.10
2022-12-31T02:22:57.083Z,4.80
2022-12-31T02:26:06.317Z,4.40
2022-12-31T02:29:08.793Z,5.20
2022-12-31T02:31:47.625Z,5.30
2022-12-31T02:34:28.663Z,4.70
2022-12-31T02:37:04.695Z,5.30
2022-12-31T02:39:39.234Z,5.00
2022-12-31T02:42:13.019Z,4.10
2022-12-31T02:44:46.693Z,5.40
2022-12-31T02:47:32.897Z,4.50
2022-12-31T02:50:24.866Z,4.60
2022-12-31T02:53:07.168Z,4.60
2022-12-31T02:55:46.549Z,4.80
2022-12-31T02:58:51.730Z,4.60
2022-12-31T03:01:50.042Z,4.10
2022-12-31T03:04:34.497Z,4.40
2022-12-31T03:07:10.955Z,4.70
2022-12-31T03:09:44.212Z,4.60
2022-12-31T03:12:35.795Z,4.20
2022-12-31T03:15:20.469Z,4.20
2022-12-31T03:17:58.006Z,3.60
2022-12-31T03:20:52.476Z,3.60
2022-12-31T03:23:29.581Z,4.00
2022-12-31T03:26:04.327Z,4.60
2022-12-31T03:28:37.650Z,3.90
2022-12-31T03:31:11.693Z,3.70
2022-12-31T03:33:45.406Z,3.60
2022-12-31T03:36:19.022Z,3.80
2022-12-31T03:38:52.988Z,3.60
2022-12-31T03:41:26.047Z,3.50
2022-12-31T03:43:59.108Z,3.10
2022-12-31T03:46:32.272Z,3.40
2022-12-31T03:49:05.345Z,3.40
2022-12-31T03:51:38.395Z,3.00
2022-12-31T03:54:11.434Z,3.20
2022-12-31T03:56:44.508Z,3.10
2022-12-31T03:59:17.703Z,3.90
2022-12-31T04:01:50.838Z,3.00
2022-12-31T04:04:24.281Z,2.80
2022-12-31T04:06:57.282Z,3.00
2022-12-31T04:09:30.430Z,3.00
2022-12-31T04:12:03.457Z,3.70
2022-12-31T04:14:36.186Z,3.50
2022-12-31T04:17:09.438Z,4.00
2022-12-31T04:19:42.448Z,4.70
2022-12-31T04:22:15.587Z,4.40
2022-12-31T04:24:48.955Z,4.80
2022-12-31T04:27:21.974Z,3.70
2022-12-31T04:29:55.001Z,3.60
2022-12-31T04:32:28.125Z,3.00
2022-12-31T04:35:01.190Z,3.00
2022-12-31T04:37:34.306Z,3.40
2022-12-31T04:40:08.656Z,2.80
2022-12-31T04:42:41.979Z,3.10
2022-12-31T04:45:16.382Z,2.90
2022-12-31T04:47:49.518Z,3.30
2022-12-31T04:50:22.599Z,3.10
2022-12-31T04:52:55.754Z,2.90
2022-12-31T04:55:28.784Z,2.80
2022-12-31T04:58:01.939Z,3.00
2022-12-31T05:00:35.026Z,3.10
2022-12-31T05:03:08.212Z,2.90
2022-12-31T05:05:45.008Z,3.10
2022-12-31T05:08:18.685Z,3.00
2022-12-31T05:10:52.476Z,2.90
2022-12-31T05:13:31.077Z,3.40
2022-12-31T05:16:07.113Z,2.70
2022-12-31T05:18:40.408Z,2.60
2022-12-31T05:21:20.784Z,3.00
2022-12-31T05:23:53.898Z,2.50
2022-12-31T05:26:26.968Z,2.70
2022-12-31T05:29:01.733Z,2.70
2022-12-31T05:31:34.780Z,2.80
2022-12-31T05:34:08.194Z,2.70
2022-12-31T05:36:41.266Z,2.80
2022-12-31T05:39:14.345Z,2.70
2022-12-31T05:41:47.798Z,2.80
2022-12-31T05:44:21.217Z,3.00
2022-12-31T05:46:54.509Z,3.20
2022-12-31T05:49:27.556Z,2.70
2022-12-31T05:52:00.639Z,2.90
2022-12-31T05:54:33.939Z,2.80
2022-12-31T05:57:07.955Z,2.60
2022-12-31T05:59:41.237Z,2.60
2022-12-31T06:02:14.348Z,2.60
2022-12-31T06:04:47.529Z,2.90
2022-12-31T06:07:20.648Z,2.80
2022-12-31T06:09:53.702Z,2.40
2022-12-31T06:12:26.931Z,2.80
2022-12-31T06:15:00.122Z,2.80
2022-12-31T06:17:33.470Z,2.80
2022-12-31T06:20:12.835Z,2.60
2022-12-31T06:22:46.317Z,2.20
2022-12-31T06:25:19.599Z,2.30
2022-12-31T06:27:52.695Z,2.70
2022-12-31T06:30:25.770Z,2.30
2022-12-31T06:32:59.164Z,2.50
2022-12-31T06:35:32.188Z,3.20
2022-12-31T06:38:05.460Z,2.60
2022-12-31T06:40:40.216Z,2.50
2022-12-31T06:43:13.367Z,2.30
2022-12-31T06:45:46.984Z,2.50
2022-12-31T06:48:20.064Z,2.60
2022-12-31T06:50:53.125Z,2.00
2022-12-31T06:53:26.984Z,2.40
2022-12-31T06:56:06.326Z,3.50
2022-12-31T06:58:40.898Z,5.10
2022-12-31T07:01:36.551Z,4.60
2022-12-31T07:04:35.073Z,4.20
2022-12-31T07:07:16.955Z,2.80
2022-12-31T07:09:58.115Z,2.50
2022-12-31T07:12:53.738Z,2.20
2022-12-31T07:15:52.772Z,2.50
2022-12-31T07:18:36.949Z,2.40
2022-12-31T07:21:14.795Z,2.50
2022-12-31T07:23:49.349Z,2.70
2022-12-31T07:26:32.991Z,2.50
2022-12-31T07:29:15.911Z,2.40
2022-12-31T07:32:02.932Z,2.40
2022-12-31T07:34:48.821Z,1.90
2022-12-31T07:37:32.305Z,2.10
2022-12-31T07:40:15.219Z,2.00
2022-12-31T07:43:05.856Z,2.10
2022-12-31T07:45:48.374Z,1.80
2022-12-31T07:48:29.256Z,2.70
2022-12-31T07:51:03.815Z,1.90
2022-12-31T07:53:38.160Z,1.80
2022-12-31T07:56:12.831Z,1.90
2022-12-31T07:59:02.592Z,2.40
2022-12-31T08:01:45.440Z,1.90
2022-12-31T08:04:29.392Z,1.90
2022-12-31T08:07:18.880Z,2.90
2022-12-31T08:10:02.454Z,2.60
2022-12-31T08:12:39.176Z,3.50
2022-12-31T08:15:28.490Z,3.20
2022-12-31T08:18:04.760Z,2.10
2022-12-31T08:20:45.706Z,2.00
2022-12-31T08:23:30.219Z,2.10
2022-12-31T08:26:17.286Z,1.90
2022-12-31T08:29:08.790Z,2.00
2022-12-31T08:31:53.522Z,2.00
2022-12-31T08:34:35.572Z,2.10
2022-12-31T08:37:15.285Z,2.20
2022-12-31T08:40:08.727Z,2.10
2022-12-31T08:42:52.969Z,2.00
2022-12-31T08:45:33.475Z,1.60
2022-12-31T08:50:45.590Z,2.50
2022-12-31T08:53:20.035Z,1.90
2022-12-31T08:56:06.844Z,1.70
2022-12-31T09:46:31.481Z,2.10
2022-12-31T09:49:51.966Z,2.90
2022-12-31T09:52:41.390Z,3.60
2022-12-31T09:55:34.899Z,2.70
2022-12-31T09:58:25.377Z,2.30
2022-12-31T10:01:09.262Z,1.80
2022-12-31T10:04:16.367Z,1.80
2022-12-31T10:07:02.121Z,2.80
2022-12-31T10:09:56.217Z,3.20
2022-12-31T10:13:24.713Z,2.10
2022-12-31T10:16:42.043Z,1.90
2022-12-31T10:19:53.276Z,1.90
2022-12-31T10:23:00.459Z,1.60
2022-12-31T10:25:57.699Z,1.70
2022-12-31T10:28:46.042Z,2.40
2022-12-31T10:31:45.448Z,3.50
2022-12-31T10:34:28.381Z,2.50
2022-12-31T10:37:10.293Z,3.30
2022-12-31T10:40:00.998Z,2.00
2022-12-31T10:43:21.979Z,1.80
2022-12-31T10:46:45.984Z,2.30
2022-12-31T10:50:06.053Z,1.70
2022-12-31T10:53:38.961Z,2.20
2022-12-31T10:56:52.282Z,2.00
2022-12-31T11:00:02.961Z,1.70
2022-12-31T11:03:15.894Z,1.60
2022-12-31T11:06:42.304Z,3.00
2022-12-31T11:10:00.043Z,1.90
2022-12-31T11:13:08.905Z,1.90
2022-12-31T11:16:11.284Z,4.00
2022-12-31T11:18:54.372Z,2.10
2022-12-31T11:21:52.491Z,1.60
2022-12-31T11:24:41.506Z,1.70
2022-12-31T11:27:35.204Z,2.10
2022-12-31T11:30:23.964Z,2.00
2022-12-31T11:33:16.205Z,2.10
2022-12-31T11:36:12.937Z,1.80
2022-12-31T11:38:55.020Z,1.90
2022-12-31T11:41:36.808Z,1.90
2022-12-31T11:44:30.802Z,1.60
2022-12-31T11:47:28.138Z,1.60
2022-12-31T11:50:22.149Z,1.50
2022-12-31T11:53:15.800Z,1.80
2022-12-31T11:56:01.705Z,3.50
2022-12-31T11:58:35.242Z,3.90
2022-12-31T12:01:17.573Z,3.40
2022-12-31T12:03:51.225Z,2.20
2022-12-31T12:06:28.942Z,2.30
2022-12-31T12:09:09.196Z,2.60
2022-12-31T12:11:43.679Z,2.20
2022-12-31T12:14:35.590Z,2.80
2022-12-31T12:17:16.746Z,2.20
2022-12-31T12:19:56.927Z,1.90
2022-12-31T12:22:32.381Z,1.80
2022-12-31T12:25:20.797Z,1.60
2022-12-31T12:27:54.302Z,2.30
2022-12-31T12:30:30.050Z,1.70
2022-12-31T12:33:05.120Z,1.60
2022-12-31T12:35:39.641Z,2.50
2022-12-31T12:38:19.420Z,2.90
2022-12-31T12:41:02.612Z,2.90
2022-12-31T12:43:38.146Z,2.80
2022-12-31T12:46:22.929Z,2.80
2022-12-31T12:49:00.120Z,2.30
2022-12-31T12:51:54.307Z,3.00
2022-12-31T12:54:43.714Z,2.30
2022-12-31T12:57:25.747Z,2.30
2022-12-31T13:00:19.452Z,1.90
2022-12-31T13:03:17.421Z,1.90
2022-12-31T13:06:07.583Z,1.90
2022-12-31T13:09:04.541Z,2.30
2022-12-31T13:11:50.973Z,2.20
2022-12-31T13:14:35.460Z,2.30
2022-12-31T13:17:31.513Z,2.30
2022-12-31T13:20:16.487Z,2.30
2022-12-31T13:22:53.485Z,2.00
2022-12-31T13:25:37.284Z,2.30
2022-12-31T13:28:16.617Z,2.80
2022-12-31T13:30:53.847Z,3.60
2022-12-31T13:33:30.879Z,2.30
2022-12-31T14:43:26.470Z,2.90
2022-12-31T14:46:11.279Z,2.80
2022-12-31T14:49:00.750Z,2.50
2022-12-31T14:51:36.441Z,2.80
2022-12-31T14:54:29.194Z,3.50
2022-12-31T14:57:13.054Z,2.80
2022-12-31T14:59:58.388Z,2.70
2022-12-31T15:02:34.927Z,2.20
2022-12-31T15:05:21.957Z,2.20
2022-12-31T15:08:20.857Z,5.90
2022-12-31T15:11:14.940Z,2.80
2022-12-31T15:14:16.655Z,2.90
2022-12-31T15:16:58.967Z,2.80
2022-12-31T15:20:14.952Z,2.80
2022-12-31T15:22:52.845Z,2.70
2022-12-31T15:25:40.822Z,2.10
2022-12-31T15:28:35.370Z,2.50
2022-12-31T15:31:20.031Z,2.50
2022-12-31T15:34:05.487Z,2.20
2022-12-31T15:36:40.069Z,2.40
2022-12-31T15:39:38.796Z,2.70
2022-12-31T15:42:50.037Z,2.70
2022-12-31T15:45:29.340Z,2.60
2022-12-31T15:48:08.141Z,2.40
2022-12-31T15:50:43.328Z,2.40
2022-12-31T15:53:30.925Z,2.70
2022-12-31T15:56:05.445Z,3.00
2022-12-31T15:58:40.151Z,3.30
2022-12-31T16:01:20.983Z,3.00
2022-12-31T16:04:02.012Z,2.50
2022-12-31T16:17:36.690Z,2.70
2022-12-31T16:20:31.154Z,2.80
2022-12-31T16:23:17.380Z,3.60
2022-12-31T16:25:51.805Z,2.40
2022-12-31T16:28:30.061Z,2.80
2022-12-31T16:31:06.969Z,2.50
2022-12-31T16:33:43.256Z,2.70
2022-12-31T16:36:25.088Z,3.10
2022-12-31T16:39:24.687Z,3.20
2022-12-31T16:42:21.131Z,2.70
2022-12-31T16:52:46.042Z,3.80
2022-12-31T16:55:23.585Z,4.00
2022-12-31T16:58:02.132Z,3.30
2022-12-31T17:00:36.570Z,3.00
2022-12-31T17:03:18.724Z,2.90
2022-12-31T17:06:14.042Z,2.50
2022-12-31T17:08:50.793Z,3.10
2022-12-31T17:11:33.306Z,2.50
2022-12-31T17:14:16.663Z,2.50
2022-12-31T17:17:05.233Z,2.60
2022-12-31T17:19:45.517Z,3.40
2022-12-31T17:22:34.311Z,2.60
2022-12-31T17:25:21.749Z,2.60
2022-12-31T17:28:00.821Z,2.70
2022-12-31T17:30:46.274Z,3.10
2022-12-31T17:33:38.201Z,2.90
2022-12-31T17:36:25.936Z,2.90
2022-12-31T17:39:11.565Z,3.30
2022-12-31T17:41:47.746Z,3.50
2022-12-31T17:44:25.020Z,2.90
2022-12-31T17:46:58.998Z,3.00
2022-12-31T17:49:33.735Z,2.70
2022-12-31T17:52:07.612Z,2.80
2022-12-31T17:54:41.673Z,3.00
2022-12-31T17:57:27.803Z,2.40
2022-12-31T18:00:00.962Z,2.60
2022-12-31T18:02:34.078Z,3.30
2022-12-31T18:05:17.822Z,3.50
2022-12-31T18:07:50.991Z,2.80
2022-12-31T18:10:26.102Z,2.50
2022-12-31T18:13:01.691Z,2.50
2022-12-31T18:15:34.853Z,2.30
2022-12-31T18:18:24.702Z,2.50
2022-12-31T18:21:02.732Z,3.50
2022-12-31T18:23:39.583Z,2.20
2022-12-31T18:26:16.305Z,2.70
2022-12-31T18:28:50.514Z,3.10
2022-12-31T18:31:27.045Z,2.50
2022-12-31T18:34:01.755Z,2.80
2022-12-31T18:36:35.015Z,2.90
2022-12-31T18:39:08.434Z,2.50
2022-12-31T18:41:46.892Z,2.50
2022-12-31T18:44:20.572Z,2.80
2022-12-31T18:46:53.755Z,1.90
2022-12-31T18:49:28.027Z,2.70
2022-12-31T18:52:01.036Z,2.50
2022-12-31T18:54:34.117Z,2.70
2022-12-31T18:57:07.099Z,2.50
2022-12-31T18:59:40.354Z,2.80
2022-12-31T19:02:19.919Z,3.10
2022-12-31T19:04:53.391Z,3.20
2022-12-31T19:07:26.780Z,2.90
2022-12-31T19:09:59.816Z,3.00
2022-12-31T19:12:32.900Z,3.20
2022-12-31T19:15:12.589Z,2.90
2022-12-31T19:17:45.646Z,2.80
2022-12-31T19:20:18.918Z,3.10
2022-12-31T19:22:52.033Z,2.40
2022-12-31T19:25:27.629Z,2.70
2022-12-31T19:28:01.087Z,2.90
2022-12-31T19:30:36.720Z,3.10
2022-12-31T19:33:09.923Z,3.00
2022-12-31T19:35:43.111Z,3.70
2022-12-31T19:38:23.498Z,3.20
2022-12-31T19:40:57.115Z,2.90
2022-12-31T19:43:30.617Z,3.80
2022-12-31T19:46:06.853Z,2.60
2022-12-31T19:48:39.950Z,2.60
2022-12-31T19:51:17.350Z,2.40
2022-12-31T19:53:51.012Z,2.40
2022-12-31T19:56:24.405Z,2.50
2022-12-31T19:58:57.421Z,2.70
2022-12-31T20:01:30.556Z,2.60
2022-12-31T20:04:03.800Z,2.70
2022-12-31T20:06:36.842Z,2.70
2022-12-31T20:09:10.331Z,3.30
2022-12-31T20:11:43.440Z,2.50
2022-12-31T20:14:16.534Z,2.80
2022-12-31T20:16:49.661Z,2.90
2022-12-31T20:19:22.859Z,2.70
2022-12-31T20:21:55.949Z,3.40
2022-12-31T20:24:28.959Z,2.80
2022-12-31T20:27:01.968Z,3.00
2022-12-31T20:29:35.020Z,3.80
2022-12-31T20:32:08.825Z,3.40
2022-12-31T20:34:41.832Z,3.70
2022-12-31T20:37:14.956Z,3.60
2022-12-31T20:39:47.918Z,3.70
2022-12-31T20:42:20.962Z,3.70
2022-12-31T20:44:54.005Z,3.80
2022-12-31T20:47:27.056Z,3.40
2022-12-31T20:50:15.473Z,3.80
2022-12-31T20:52:48.656Z,3.90
2022-12-31T20:55:21.961Z,4.60
2022-12-31T20:57:55.739Z,4.10
2022-12-31T21:00:29.179Z,4.70
2022-12-31T21:03:14.435Z,4.50
2022-12-31T21:05:56.833Z,4.70
2022-12-31T21:08:34.747Z,4.40
2022-12-31T21:11:28.920Z,4.40
2022-12-31T21:14:02.991Z,3.90
2022-12-31T21:16:36.183Z,3.90
2022-12-31T21:19:10.138Z,4.20
2022-12-31T21:21:43.830Z,4.10
2022-12-31T21:24:23.258Z,3.70
2022-12-31T21:26:59.007Z,3.70
2022-12-31T21:29:34.714Z,4.00
2022-12-31T21:32:09.346Z,4.00
2022-12-31T21:34:42.393Z,4.10
2022-12-31T21:37:15.354Z,3.80
2022-12-31T21:39:48.344Z,4.10
2022-12-31T21:42:21.700Z,4.30
2022-12-31T21:44:55.083Z,4.40
2022-12-31T21:47:47.712Z,4.00
2022-12-31T21:50:21.362Z,4.70
2022-12-31T21:52:54.599Z,4.10
2022-12-31T21:55:45.219Z,4.50
2022-12-31T21:58:28.071Z,3.30
2022-12-31T22:01:20.248Z,3.70
2022-12-31T22:03:53.642Z,3.40
2022-12-31T22:06:27.908Z,3.70
2022-12-31T22:09:01.291Z,3.90
2022-12-31T22:11:34.390Z,3.50
2022-12-31T22:14:07.460Z,3.80
2022-12-31T22:16:40.544Z,3.40
2022-12-31T22:19:13.635Z,3.70
2022-12-31T22:21:46.840Z,3.30
2022-12-31T22:24:20.041Z,3.60
2022-12-31T22:26:55.758Z,5.40
2022-12-31T22:29:30.246Z,4.80
2022-12-31T22:32:03.334Z,5.20
2022-12-31T22:34:37.098Z,4.50
2022-12-31T22:37:35.723Z,5.30
2022-12-31T22:40:03.327Z,4.80
2022-12-31T22:42:36.364Z,4.70
2022-12-31T22:45:11.517Z,4.30
2022-12-31T22:47:44.712Z,4.70
2022-12-31T22:50:18.031Z,4.50
2022-12-31T22:52:51.037Z,5.90
2022-12-31T22:55:24.301Z,5.10
2022-12-31T22:57:57.421Z,5.60
2022-12-31T23:00:43.821Z,6.80
2022-12-31T23:03:16.958Z,64.90
2022-12-31T23:05:52.893Z,53.00
2022-12-31T23:08:26.476Z,33.20
2022-12-31T23:11:05.839Z,20.20
2022-12-31T23:14:01.556Z,18.90
2022-12-31T23:16:52.391Z,12.30
2022-12-31T23:19:43.229Z,10.40
2022-12-31T23:22:33.423Z,9.70
2022-12-31T23:25:07.306Z,9.70
2022-12-31T23:27:40.369Z,8.90
2022-12-31T23:30:15.489Z,8.60
2022-12-31T23:32:48.515Z,8.10
2022-12-31T23:35:21.840Z,9.10
2022-12-31T23:37:54.851Z,7.90
2022-12-31T23:40:34.506Z,9.20
2022-12-31T23:43:09.621Z,10.70
2022-12-31T23:45:42.693Z,11.60
2022-12-31T23:48:15.663Z,12.80
2022-12-31T23:50:54.479Z,14.70
2022-12-31T23:53:27.931Z,13.50
2022-12-31T23:56:13.051Z,10.50
2022-12-31T23:58:49.383Z,11.10
